sensor_id;sensor_type;location;lat;lon;timestamp;temperature;humidity
9095;DHT22;4583;49.796;9.902;2022-08-25T00:06:12;22.50;76.70
9095;DHT22;4583;49.796;9.902;2022-08-25T00:16:15;22.40;77.90
9095;DHT22;4583;49.796;9.902;2022-08-25T00:26:18;22.20;78.60
9095;DHT22;4583;49.796;9.902;2022-08-25T00:36:19;22.10;79.50
9095;DHT22;4583;49.796;9.902;2022-08-25T00:46:27;22.00;80.30
9095;DHT22;4583;49.796;9.902;2022-08-25T00:56:29;21.80;80.70
9095;DHT22;4583;49.796;9.902;2022-08-25T01:06:35;21.70;81.40
9095;DHT22;4583;49.796;9.902;2022-08-25T01:16:40;21.60;81.90
9095;DHT22;4583;49.796;9.902;2022-08-25T01:26:43;21.40;82.40
9095;DHT22;4583;49.796;9.902;2022-08-25T01:36:44;21.30;83.10
9095;DHT22;4583;49.796;9.902;2022-08-25T01:46:46;21.20;83.90
9095;DHT22;4583;49.796;9.902;2022-08-25T01:56:48;21.20;84.80
9095;DHT22;4583;49.796;9.902;2022-08-25T02:06:50;21.10;85.20
9095;DHT22;4583;49.796;9.902;2022-08-25T02:16:52;20.90;85.60
9095;DHT22;4583;49.796;9.902;2022-08-25T02:26:54;20.80;86.00
9095;DHT22;4583;49.796;9.902;2022-08-25T02:36:56;20.60;86.60
9095;DHT22;4583;49.796;9.902;2022-08-25T02:46:57;20.50;87.20
9095;DHT22;4583;49.796;9.902;2022-08-25T02:56:59;20.50;87.70
9095;DHT22;4583;49.796;9.902;2022-08-25T03:07:01;20.50;88.10
9095;DHT22;4583;49.796;9.902;2022-08-25T03:17:05;20.40;88.50
9095;DHT22;4583;49.796;9.902;2022-08-25T03:27:09;20.30;89.20
9095;DHT22;4583;49.796;9.902;2022-08-25T03:37:12;20.20;89.40
9095;DHT22;4583;49.796;9.902;2022-08-25T03:47:14;20.10;90.00
9095;DHT22;4583;49.796;9.902;2022-08-25T03:57:16;20.00;90.20
9095;DHT22;4583;49.796;9.902;2022-08-25T04:07:17;19.90;90.40
9095;DHT22;4583;49.796;9.902;2022-08-25T04:17:19;19.80;90.70
9095;DHT22;4583;49.796;9.902;2022-08-25T04:27:20;19.80;90.90
9095;DHT22;4583;49.796;9.902;2022-08-25T04:37:22;19.70;91.40
9095;DHT22;4583;49.796;9.902;2022-08-25T04:47:24;19.70;91.40
9095;DHT22;4583;49.796;9.902;2022-08-25T04:57:29;19.70;91.50
9095;DHT22;4583;49.796;9.902;2022-08-25T05:07:30;19.70;91.50
9095;DHT22;4583;49.796;9.902;2022-08-25T05:17:32;19.60;91.70
9095;DHT22;4583;49.796;9.902;2022-08-25T05:27:34;19.60;92.00
9095;DHT22;4583;49.796;9.902;2022-08-25T05:37:35;19.70;92.10
9095;DHT22;4583;49.796;9.902;2022-08-25T05:47:40;19.80;92.30
9095;DHT22;4583;49.796;9.902;2022-08-25T05:57:42;20.00;92.30
9095;DHT22;4583;49.796;9.902;2022-08-25T06:07:45;20.10;92.10
9095;DHT22;4583;49.796;9.902;2022-08-25T06:17:48;20.10;92.20
9095;DHT22;4583;49.796;9.902;2022-08-25T06:27:50;20.30;92.40
9095;DHT22;4583;49.796;9.902;2022-08-25T06:37:52;20.50;92.30
9095;DHT22;4583;49.796;9.902;2022-08-25T06:47:56;20.70;92.40
9095;DHT22;4583;49.796;9.902;2022-08-25T06:57:59;21.00;92.40
9095;DHT22;4583;49.796;9.902;2022-08-25T07:08:02;21.20;92.20
9095;DHT22;4583;49.796;9.902;2022-08-25T07:18:04;21.50;92.10
9095;DHT22;4583;49.796;9.902;2022-08-25T07:28:06;21.80;92.00
9095;DHT22;4583;49.796;9.902;2022-08-25T07:38:09;22.10;91.80
9095;DHT22;4583;49.796;9.902;2022-08-25T07:48:16;22.40;91.60
9095;DHT22;4583;49.796;9.902;2022-08-25T07:58:20;22.80;91.60
9095;DHT22;4583;49.796;9.902;2022-08-25T08:08:22;23.10;91.50
9095;DHT22;4583;49.796;9.902;2022-08-25T08:18:24;23.30;91.30
9095;DHT22;4583;49.796;9.902;2022-08-25T08:28:26;23.60;91.10
9095;DHT22;4583;49.796;9.902;2022-08-25T08:38:28;24.00;90.80
9095;DHT22;4583;49.796;9.902;2022-08-25T08:48:47;24.20;90.40
9095;DHT22;4583;49.796;9.902;2022-08-25T08:58:55;24.50;90.00
9095;DHT22;4583;49.796;9.902;2022-08-25T09:09:02;24.70;89.00
9095;DHT22;4583;49.796;9.902;2022-08-25T09:40:06;25.40;84.60
9095;DHT22;4583;49.796;9.902;2022-08-25T09:50:14;25.60;83.40
9095;DHT22;4583;49.796;9.902;2022-08-25T10:00:26;25.90;81.70
9095;DHT22;4583;49.796;9.902;2022-08-25T10:10:34;26.10;80.30
9095;DHT22;4583;49.796;9.902;2022-08-25T10:20:42;26.00;78.70
9095;DHT22;4583;49.796;9.902;2022-08-25T10:31:11;25.90;77.70
9095;DHT22;4583;49.796;9.902;2022-08-25T10:41:27;25.90;77.00
9095;DHT22;4583;49.796;9.902;2022-08-25T11:12:26;25.90;74.10
9095;DHT22;4583;49.796;9.902;2022-08-25T11:32:44;26.10;71.30
9095;DHT22;4583;49.796;9.902;2022-08-25T11:43:03;26.50;70.10
9095;DHT22;4583;49.796;9.902;2022-08-25T12:24:03;28.00;63.90
9095;DHT22;4583;49.796;9.902;2022-08-25T12:34:31;28.30;62.70
9095;DHT22;4583;49.796;9.902;2022-08-25T12:44:41;28.60;61.00
9095;DHT22;4583;49.796;9.902;2022-08-25T12:54:56;28.80;59.40
9095;DHT22;4583;49.796;9.902;2022-08-25T13:15:56;29.00;58.30
9095;DHT22;4583;49.796;9.902;2022-08-25T13:25:58;28.80;58.30
9095;DHT22;4583;49.796;9.902;2022-08-25T13:36:01;28.80;58.10
9095;DHT22;4583;49.796;9.902;2022-08-25T13:46:21;28.60;57.90
9095;DHT22;4583;49.796;9.902;2022-08-25T13:56:32;28.60;57.50
9095;DHT22;4583;49.796;9.902;2022-08-25T14:06:41;28.60;57.50
9095;DHT22;4583;49.796;9.902;2022-08-25T14:16:50;28.90;57.00
9095;DHT22;4583;49.796;9.902;2022-08-25T14:26:54;29.50;56.80
9095;DHT22;4583;49.796;9.902;2022-08-25T14:36:56;32.50;52.10
9095;DHT22;4583;49.796;9.902;2022-08-25T14:47:00;31.10;52.20
9095;DHT22;4583;49.796;9.902;2022-08-25T14:57:05;30.00;52.30
9095;DHT22;4583;49.796;9.902;2022-08-25T15:07:11;29.70;52.50
9095;DHT22;4583;49.796;9.902;2022-08-25T15:17:33;29.60;52.20
9095;DHT22;4583;49.796;9.902;2022-08-25T15:27:35;29.70;52.10
9095;DHT22;4583;49.796;9.902;2022-08-25T15:37:37;29.40;53.10
9095;DHT22;4583;49.796;9.902;2022-08-25T15:47:41;29.30;53.90
9095;DHT22;4583;49.796;9.902;2022-08-25T15:57:43;29.10;54.50
9095;DHT22;4583;49.796;9.902;2022-08-25T16:07:45;28.80;55.10
9095;DHT22;4583;49.796;9.902;2022-08-25T16:17:52;28.60;56.60
9095;DHT22;4583;49.796;9.902;2022-08-25T16:27:54;28.40;57.50
9095;DHT22;4583;49.796;9.902;2022-08-25T16:37:58;28.30;57.90
9095;DHT22;4583;49.796;9.902;2022-08-25T16:48:04;28.30;57.70
9095;DHT22;4583;49.796;9.902;2022-08-25T16:58:07;28.20;57.50
9095;DHT22;4583;49.796;9.902;2022-08-25T17:08:14;28.20;57.10
9095;DHT22;4583;49.796;9.902;2022-08-25T17:18:31;28.10;56.90
9095;DHT22;4583;49.796;9.902;2022-08-25T17:28:33;28.00;57.30
9095;DHT22;4583;49.796;9.902;2022-08-25T17:38:35;28.00;57.90
9095;DHT22;4583;49.796;9.902;2022-08-25T17:48:38;27.90;58.30
9095;DHT22;4583;49.796;9.902;2022-08-25T17:58:44;27.90;58.60
9095;DHT22;4583;49.796;9.902;2022-08-25T18:08:48;27.80;58.90
9095;DHT22;4583;49.796;9.902;2022-08-25T18:18:54;27.60;59.40
9095;DHT22;4583;49.796;9.902;2022-08-25T18:28:57;27.50;59.90
9095;DHT22;4583;49.796;9.902;2022-08-25T18:38:59;27.30;60.40
9095;DHT22;4583;49.796;9.902;2022-08-25T18:49:20;27.10;61.10
9095;DHT22;4583;49.796;9.902;2022-08-25T18:59:27;27.00;61.50
9095;DHT22;4583;49.796;9.902;2022-08-25T19:09:29;26.80;61.50
9095;DHT22;4583;49.796;9.902;2022-08-25T19:19:31;26.70;61.90
9095;DHT22;4583;49.796;9.902;2022-08-25T19:29:32;26.60;62.20
9095;DHT22;4583;49.796;9.902;2022-08-25T19:39:36;26.40;64.60
9095;DHT22;4583;49.796;9.902;2022-08-25T19:49:40;26.20;64.80
9095;DHT22;4583;49.796;9.902;2022-08-25T19:59:43;26.10;65.70
9095;DHT22;4583;49.796;9.902;2022-08-25T20:09:48;25.90;66.50
9095;DHT22;4583;49.796;9.902;2022-08-25T20:19:51;25.80;66.80
9095;DHT22;4583;49.796;9.902;2022-08-25T20:29:54;25.60;67.60
9095;DHT22;4583;49.796;9.902;2022-08-25T20:39:57;25.50;69.30
9095;DHT22;4583;49.796;9.902;2022-08-25T20:49:59;25.40;68.90
9095;DHT22;4583;49.796;9.902;2022-08-25T21:00:08;25.20;69.80
9095;DHT22;4583;49.796;9.902;2022-08-25T21:10:11;25.10;70.30
9095;DHT22;4583;49.796;9.902;2022-08-25T21:20:15;24.90;70.50
9095;DHT22;4583;49.796;9.902;2022-08-25T21:30:17;24.90;70.90
9095;DHT22;4583;49.796;9.902;2022-08-25T21:40:20;24.80;71.30
9095;DHT22;4583;49.796;9.902;2022-08-25T21:50:22;24.60;71.80
9095;DHT22;4583;49.796;9.902;2022-08-25T22:00:25;24.40;72.60
9095;DHT22;4583;49.796;9.902;2022-08-25T22:10:27;24.20;73.10
9095;DHT22;4583;49.796;9.902;2022-08-25T22:20:29;24.10;73.80
9095;DHT22;4583;49.796;9.902;2022-08-25T22:30:32;24.00;75.30
9095;DHT22;4583;49.796;9.902;2022-08-25T22:40:36;23.90;75.20
9095;DHT22;4583;49.796;9.902;2022-08-25T22:50:37;23.70;75.90
9095;DHT22;4583;49.796;9.902;2022-08-25T23:00:40;23.60;76.40
9095;DHT22;4583;49.796;9.902;2022-08-25T23:10:51;23.50;77.00
9095;DHT22;4583;49.796;9.902;2022-08-25T23:20:53;23.40;77.50
9095;DHT22;4583;49.796;9.902;2022-08-25T23:31:16;23.40;78.00
9095;DHT22;4583;49.796;9.902;2022-08-25T23:41:20;23.20;78.60
9095;DHT22;4583;49.796;9.902;2022-08-25T23:51:28;23.20;79.30
